createdAt,value
2019-02-14T00:00:20.143Z,8.20
2019-02-14T00:02:50.899Z,8.20
2019-02-14T00:05:21.768Z,8.20
2019-02-14T00:07:52.604Z,8.10
2019-02-14T00:10:23.506Z,8.10
2019-02-14T00:12:55.806Z,8.10
2019-02-14T00:15:26.727Z,8.00
2019-02-14T00:17:57.723Z,8.00
2019-02-14T00:20:28.659Z,8.00
2019-02-14T00:22:59.524Z,8.00
2019-02-14T00:25:30.508Z,7.90
2019-02-14T00:28:01.988Z,7.90
2019-02-14T00:30:32.843Z,7.90
2019-02-14T00:33:04.124Z,7.80
2019-02-14T00:35:35.086Z,7.80
2019-02-14T00:38:05.903Z,7.70
2019-02-14T00:40:36.694Z,7.70
2019-02-14T00:43:07.572Z,7.60
2019-02-14T00:45:38.568Z,7.60
2019-02-14T00:48:09.377Z,7.60
2019-02-14T00:50:40.480Z,7.60
2019-02-14T00:53:11.388Z,7.60
2019-02-14T00:55:42.178Z,7.50
2019-02-14T00:58:12.092Z,7.50
2019-02-14T01:00:41.804Z,7.40
2019-02-14T01:03:11.521Z,7.30
2019-02-14T01:05:42.160Z,7.30
2019-02-14T01:08:11.868Z,7.20
2019-02-14T01:10:41.910Z,7.20
2019-02-14T01:13:12.478Z,7.10
2019-02-14T01:15:43.838Z,7.10
2019-02-14T01:18:14.669Z,7.00
2019-02-14T01:20:45.613Z,6.90
2019-02-14T01:23:16.471Z,6.90
2019-02-14T01:25:47.338Z,6.80
2019-02-14T01:28:18.399Z,6.80
2019-02-14T01:30:49.263Z,6.70
2019-02-14T01:33:21.426Z,6.70
2019-02-14T01:35:52.668Z,6.60
2019-02-14T01:38:24.034Z,6.60
2019-02-14T01:40:54.914Z,6.60
2019-02-14T01:43:25.788Z,5.80
2019-02-14T01:45:56.714Z,6.50
2019-02-14T01:48:27.662Z,6.40
2019-02-14T01:50:58.576Z,6.40
2019-02-14T01:53:29.431Z,6.30
2019-02-14T01:56:00.427Z,6.30
2019-02-14T01:58:31.402Z,6.20
2019-02-14T02:01:02.351Z,6.10
2019-02-14T02:03:33.227Z,6.10
2019-02-14T02:06:04.103Z,6.10
2019-02-14T02:08:34.882Z,6.20
2019-02-14T02:11:06.545Z,6.10
2019-02-14T02:13:37.288Z,6.10
2019-02-14T02:16:08.268Z,6.00
2019-02-14T02:18:40.038Z,6.00
2019-02-14T02:21:10.891Z,6.00
2019-02-14T02:23:42.032Z,6.00
2019-02-14T02:26:13.033Z,5.90
2019-02-14T02:28:43.942Z,6.00
2019-02-14T02:31:14.733Z,5.90
2019-02-14T02:33:45.471Z,5.90
2019-02-14T02:36:16.389Z,5.90
2019-02-14T02:38:47.568Z,5.90
2019-02-14T02:41:18.614Z,6.00
2019-02-14T02:43:49.852Z,5.90
2019-02-14T02:46:20.828Z,5.90
2019-02-14T02:48:53.308Z,5.90
2019-02-14T02:51:24.409Z,5.80
2019-02-14T02:53:58.934Z,5.80
2019-02-14T02:56:31.689Z,5.80
2019-02-14T02:59:05.098Z,5.80
2019-02-14T03:01:38.650Z,5.80
2019-02-14T03:04:10.875Z,5.80
2019-02-14T03:06:41.938Z,5.70
2019-02-14T03:09:16.289Z,5.70
2019-02-14T03:11:52.628Z,5.70
2019-02-14T03:14:24.054Z,5.70
2019-02-14T03:16:56.975Z,5.60
2019-02-14T03:19:28.413Z,5.60
2019-02-14T03:22:04.129Z,5.60
2019-02-14T03:24:36.826Z,5.50
2019-02-14T03:27:16.898Z,5.50
2019-02-14T03:29:52.634Z,5.50
2019-02-14T03:32:29.403Z,5.50
2019-02-14T03:35:05.654Z,5.50
2019-02-14T03:37:40.383Z,5.50
2019-02-14T03:40:16.632Z,5.40
2019-02-14T03:42:48.574Z,5.40
2019-02-14T03:45:19.777Z,5.40
2019-02-14T03:47:51.365Z,5.30
2019-02-14T03:50:25.058Z,5.30
